Minnehaha, West Virginia
Current Conditions -  °F | °C
As of 6:35 PM on Saturday 22 Nov 2014 (Local Time) from KHSP Reporting Station
Clear Clear  
Wind Chill: 36°   Ceiling: Unl
Heat Index: 39°   Visibility: 10mi
Dew Point: 14°   Wind: 5mph
Humidity: 35%   Direction: 230°SW
Pressure: 30.2"   Gusts: NA
Location:  38.2213°N, 80.0565°W
Report Text: KHSP 222335Z AUTO 23004KT 10SM CLR 04/M10 A3020 RMK AO2 T00391102
Loading
Personal Weather Stations






























Interactive Weather Map New forecast layout! Learn more

10-Day Weather Forecast

Advertisements
Track Severe Weather on mobile